Time;durP1;ratioP1;P1;durP2;ratioP2;P2;SDS_P1;SDS_P2;PMS_P1;PMS_P2;Temp;Humidity;BMP_temperature;BMP_pressure;BME280_temperature;BME280_humidity;BME280_pressure;Samples;Min_cycle;Max_cycle;Signal;HPM_P1;HPM_P2
2022/04/22 00:03:43;;;;;;;0.32;0.32;;;;;;;16.92;55.67;95268.84;10366965;28;20034;-21
2022/04/22 00:08:43;;;;;;;0.45;0.43;;;;;;;16.95;55.60;95269.63;10359875;28;20029;-22
2022/04/22 00:13:44;;;;;;;0.27;0.27;;;;;;;16.93;54.16;95265.44;10412758;28;20041;-21
2022/04/22 00:18:44;;;;;;;0.40;0.40;;;;;;;16.86;54.21;95253.78;10333427;28;20062;-22
2022/04/22 00:23:45;;;;;;;0.40;0.40;;;;;;;16.74;53.79;95243.88;10355814;28;20069;-21
2022/04/22 00:28:46;;;;;;;0.40;0.40;;;;;;;16.76;53.21;95247.22;10370366;28;20029;-21
2022/04/22 00:33:46;;;;;;;0.40;0.30;;;;;;;16.79;53.85;95253.06;10330104;28;20078;-22
2022/04/22 00:38:46;;;;;;;0.40;0.40;;;;;;;16.79;53.80;95249.69;10330514;28;20038;-22
2022/04/22 00:43:53;;;;;;;0.53;0.40;;;;;;;16.78;53.64;95242.97;10330311;28;20057;-22
2022/04/22 00:48:53;;;;;;;0.50;0.50;;;;;;;16.78;53.74;95230.31;10359127;28;20041;-21
2022/04/22 00:53:54;;;;;;;0.40;0.40;;;;;;;16.70;53.71;95216.97;10342638;28;20037;-22
2022/04/22 00:58:57;;;;;;;0.40;0.40;;;;;;;16.77;54.21;95223.59;10329202;28;20038;-22
2022/04/22 01:14:37;;;;;;;0.50;0.50;;;;;;;16.91;55.43;95192.16;10395826;28;20038;-21
2022/04/22 01:19:38;;;;;;;0.63;0.50;;;;;;;16.92;54.31;95193.00;10329263;28;20042;-22
2022/04/22 01:24:38;;;;;;;0.43;0.40;;;;;;;16.86;53.84;95193.13;10329003;28;20532;-22
2022/04/22 01:29:39;;;;;;;0.45;0.45;;;;;;;16.82;53.72;95181.41;10328607;28;20497;-21
2022/04/22 01:34:39;;;;;;;0.50;0.50;;;;;;;16.77;54.17;95177.31;10328664;28;20038;-22
2022/04/22 01:39:40;;;;;;;0.37;0.30;;;;;;;16.79;53.59;95176.41;10328040;28;20493;-21
2022/04/22 01:44:40;;;;;;;0.80;0.40;;;;;;;16.78;53.72;95169.69;10327173;28;20467;-21
2022/04/22 01:49:40;;;;;;;0.50;0.50;;;;;;;16.77;53.80;95168.88;10355064;28;20390;-20
2022/04/22 01:54:41;;;;;;;0.20;0.20;;;;;;;16.74;53.82;95160.50;10327427;28;20062;-21
2022/04/22 01:59:44;;;;;;;0.35;0.35;;;;;;;16.77;53.99;95168.00;10328092;28;20069;-21
2022/04/22 02:04:45;;;;;;;0.40;0.40;;;;;;;16.74;53.92;95168.09;10362034;28;20451;-21
2022/04/22 02:09:45;;;;;;;0.35;0.35;;;;;;;16.75;53.65;95159.63;10364130;28;20033;-21
2022/04/22 02:14:46;;;;;;;0.50;0.50;;;;;;;16.77;53.98;95167.19;10408249;28;20044;-22
2022/04/22 02:19:46;;;;;;;0.68;0.68;;;;;;;16.88;54.93;95161.06;10339268;28;20404;-22
2022/04/22 02:24:47;;;;;;;0.50;0.50;;;;;;;16.93;54.81;95159.28;10326735;28;20034;-22
2022/04/22 02:29:47;;;;;;;0.50;0.50;;;;;;;16.91;54.42;95158.50;10327326;28;20645;-22
2022/04/22 02:34:47;;;;;;;0.40;0.40;;;;;;;16.84;53.69;95149.34;10326940;28;20100;-22
2022/04/22 02:39:48;;;;;;;0.30;0.30;;;;;;;16.80;53.94;95151.09;10360117;28;20116;-22
2022/04/22 02:50:08;;;;;;;0.40;0.40;;;;;;;16.77;53.68;95148.66;10326515;28;20102;-21
2022/04/22 02:55:08;;;;;;;0.70;0.60;;;;;;;16.75;54.14;95129.31;10327928;28;20554;-22
2022/04/22 03:00:11;;;;;;;0.43;0.43;;;;;;;16.75;53.66;95130.13;10336520;28;20125;-22
2022/04/22 03:05:12;;;;;;;0.50;0.50;;;;;;;16.76;54.00;95125.91;10374475;28;20057;-26
2022/04/22 03:10:12;;;;;;;0.60;0.50;;;;;;;16.72;53.73;95116.75;10374513;28;20060;-22
2022/04/22 03:15:15;;;;;;;0.55;0.47;;;;;;;16.74;53.70;95118.34;10382568;28;20062;-22
2022/04/22 03:20:15;;;;;;;0.68;0.65;;;;;;;16.74;53.76;95118.34;10334122;28;20045;-21
2022/04/22 03:25:19;;;;;;;0.40;0.40;;;;;;;16.77;54.63;95118.31;10370309;28;20044;-21
2022/04/22 03:30:19;;;;;;;1.77;0.60;;;;;;;16.87;55.00;95118.97;10362623;28;20041;-23
2022/04/22 03:35:20;;;;;;;0.50;0.50;;;;;;;16.90;54.66;95111.34;10334040;28;20039;-22
2022/04/22 03:40:20;;;;;;;0.55;0.50;;;;;;;16.86;53.90;95108.03;10333530;28;20042;-22
2022/04/22 03:45:22;;;;;;;0.57;0.57;;;;;;;16.77;53.90;95107.38;10332731;28;20026;-22
2022/04/22 03:50:22;;;;;;;0.50;0.45;;;;;;;16.77;54.05;95105.69;10333081;28;20532;-22
2022/04/22 03:55:22;;;;;;;0.70;0.68;;;;;;;16.76;53.73;95105.72;10332112;28;20049;-21
2022/04/22 04:00:23;;;;;;;0.40;0.40;;;;;;;16.75;53.94;95109.91;10349734;28;20120;-21
2022/04/22 04:05:24;;;;;;;0.43;0.43;;;;;;;16.75;53.76;95104.03;10371952;28;20475;-21
2022/04/22 04:15:58;;;;;;;0.60;0.40;;;;;;;16.70;53.82;95102.47;10405605;28;20034;-21
2022/04/22 04:26:21;;;;;;;0.57;0.57;;;;;;;16.73;53.75;95108.31;10331073;28;20493;-21
2022/04/22 04:31:22;;;;;;;0.55;0.55;;;;;;;16.73;53.76;95108.31;10331286;28;20457;-22
2022/04/22 04:36:22;;;;;;;0.50;0.50;;;;;;;16.80;54.90;95113.19;10330973;28;20089;-22
2022/04/22 04:41:23;;;;;;;0.60;0.50;;;;;;;16.87;54.51;95114.75;10330755;28;20045;-23
2022/04/22 04:46:23;;;;;;;0.52;0.52;;;;;;;16.88;54.26;95110.50;10348156;28;20042;-22
2022/04/22 04:51:23;;;;;;;0.50;0.50;;;;;;;16.82;53.65;95123.28;10364193;28;20039;-21
2022/04/22 04:56:24;;;;;;;0.60;0.60;;;;;;;16.77;53.84;95117.47;10330252;28;20038;-21
2022/04/22 05:01:24;;;;;;;1.20;0.60;;;;;;;16.75;53.76;95116.69;10329724;28;20038;-22
2022/04/22 05:06:25;;;;;;;0.60;0.60;;;;;;;16.73;53.84;95115.03;10362101;28;20141;-21
2022/04/22 05:11:25;;;;;;;0.60;0.60;;;;;;;16.73;53.73;95115.88;10387270;28;20029;-22
2022/04/22 05:16:25;;;;;;;0.57;0.43;;;;;;;16.72;54.01;95119.28;10382062;28;20042;-22
2022/04/22 05:21:26;;;;;;;0.33;0.33;;;;;;;16.70;53.85;95110.88;10334773;28;20588;-21
2022/04/22 05:26:26;;;;;;;0.60;0.60;;;;;;;16.70;53.79;95115.91;10369240;28;20443;-22
2022/04/22 05:36:45;;;;;;;0.70;0.50;;;;;;;16.70;53.65;95113.38;10328221;28;20289;-22
2022/04/22 05:41:47;;;;;;;0.80;0.80;;;;;;;16.65;53.91;95110.13;10328788;28;20084;-22
2022/04/22 05:46:48;;;;;;;0.50;0.43;;;;;;;16.77;54.75;95106.56;10328305;28;20497;-22
2022/04/22 05:51:48;;;;;;;1.17;1.08;;;;;;;16.87;54.43;95116.44;10336741;28;20036;-21
2022/04/22 05:56:48;;;;;;;0.50;0.50;;;;;;;16.83;53.68;95117.38;10368487;28;20064;-21
2022/04/22 06:01:49;;;;;;;0.40;0.40;;;;;;;16.77;53.90;95107.38;10350921;28;20704;-23
2022/04/22 06:06:49;;;;;;;1.83;0.50;;;;;;;16.75;53.65;95114.16;10358081;28;20046;-23
2022/04/22 06:11:49;;;;;;;0.33;0.33;;;;;;;16.72;54.00;95119.28;10391588;28;20026;-22
2022/04/22 06:16:50;;;;;;;0.60;0.60;;;;;;;16.71;54.06;95117.59;10386107;28;20034;-21
2022/04/22 06:21:50;;;;;;;0.70;0.60;;;;;;;16.70;54.11;95110.88;10327121;28;20104;-22
2022/04/22 06:26:50;;;;;;;0.60;0.60;;;;;;;16.70;53.95;95100.75;10326582;28;20468;-22
2022/04/22 06:31:51;;;;;;;0.40;0.40;;;;;;;16.68;53.69;95105.00;10331861;28;20034;-22
2022/04/22 06:36:52;;;;;;;0.60;0.60;;;;;;;16.68;53.99;95102.50;10334909;28;20069;-22
2022/04/22 06:47:12;;;;;;;0.50;0.50;;;;;;;16.67;53.54;95096.59;10355720;28;20037;-21
2022/04/22 06:52:14;;;;;;;0.57;0.50;;;;;;;16.72;54.72;95104.13;10362473;28;20512;-22
2022/04/22 06:57:14;;;;;;;1.10;0.90;;;;;;;16.81;54.61;95088.78;10335019;28;20145;-21
2022/04/22 07:02:15;;;;;;;0.60;0.60;;;;;;;16.85;54.93;95087.84;10340259;28;20395;-22
2022/04/22 07:07:16;;;;;;;0.40;0.40;;;;;;;16.79;53.83;95085.41;10360800;28;20050;-22
2022/04/22 07:12:18;;;;;;;0.50;0.50;;;;;;;16.73;53.84;95090.63;10405578;28;20037;-22
2022/04/22 07:17:19;;;;;;;0.57;0.57;;;;;;;16.71;53.69;95089.78;10377309;28;20719;-21
2022/04/22 07:22:20;;;;;;;0.60;0.60;;;;;;;16.70;53.76;95087.31;10333601;28;20110;-21
2022/04/22 07:27:24;;;;;;;0.40;0.40;;;;;;;16.68;53.91;95087.34;10334051;28;20042;-22
2022/04/22 07:32:26;;;;;;;0.95;0.43;;;;;;;16.64;53.79;95080.69;10333329;28;20124;-21
2022/04/22 07:37:27;;;;;;;0.50;0.50;;;;;;;16.67;53.84;95093.25;10333161;28;20048;-21
2022/04/22 07:42:29;;;;;;;0.52;0.47;;;;;;;16.67;53.69;95091.53;10332328;28;20501;-22
2022/04/22 07:47:29;;;;;;;0.70;0.57;;;;;;;16.67;53.65;95085.66;10333464;28;20120;-21
2022/04/22 07:52:29;;;;;;;0.40;0.40;;;;;;;16.66;53.77;95078.94;10331691;28;20109;-21
2022/04/22 07:57:30;;;;;;;0.40;0.40;;;;;;;16.65;53.56;95079.81;10329252;28;20057;-21
2022/04/22 08:02:31;;;;;;;0.63;0.63;;;;;;;16.73;54.82;95074.59;10340619;28;20053;-21
2022/04/22 08:07:31;;;;;;;0.75;0.75;;;;;;;16.80;54.89;95076.97;10356833;28;20034;-22
2022/04/22 08:12:33;;;;;;;0.85;0.82;;;;;;;16.78;54.53;95061.00;10406832;28;20064;-21
2022/04/22 08:17:37;;;;;;;1.13;0.55;;;;;;;16.75;53.63;95078.78;10340855;28;20221;-21
2022/04/22 08:22:38;;;;;;;0.70;0.70;;;;;;;16.70;53.86;95070.44;10331199;28;20042;-21
2022/04/22 08:27:39;;;;;;;0.63;0.63;;;;;;;16.69;54.00;95067.97;10331285;28;20030;-21
2022/04/22 08:32:40;;;;;;;0.50;0.50;;;;;;;16.64;54.11;95063.00;10330781;28;20113;-21
2022/04/22 08:37:45;;;;;;;0.47;0.47;;;;;;;16.67;53.58;95059.56;10331018;28;20040;-21
2022/04/22 08:42:46;;;;;;;0.45;0.45;;;;;;;16.67;53.77;95059.56;10330158;28;20559;-21
2022/04/22 08:53:11;;;;;;;0.40;0.40;;;;;;;16.66;53.89;95052.84;10330187;28;20045;-22
2022/04/22 08:58:13;;;;;;;0.50;0.40;;;;;;;16.64;53.91;95045.31;10330403;28;20093;-22
2022/04/22 09:03:13;;;;;;;0.52;0.50;;;;;;;16.65;53.83;95041.91;10366594;28;20037;-22
2022/04/22 09:08:14;;;;;;;0.47;0.47;;;;;;;16.65;54.17;95043.59;10371982;28;20526;-21
2022/04/22 09:13:30;;;;;;;0.60;0.60;;;;;;;16.73;54.95;95040.91;10410663;28;20034;-21
2022/04/22 09:18:35;;;;;;;0.88;0.60;;;;;;;16.80;54.78;95044.13;10333168;28;20189;-21
2022/04/22 09:23:36;;;;;;;0.60;0.60;;;;;;;16.81;54.49;95036.53;10352016;28;20493;-21
2022/04/22 09:28:38;;;;;;;0.35;0.35;;;;;;;16.67;53.77;95025.84;10370047;28;20034;-24
2022/04/22 09:33:47;;;;;;;0.77;0.60;;;;;;;16.70;53.80;95032.53;10336819;28;20037;-28
2022/04/22 09:44:14;;;;;;;0.38;0.38;;;;;;;16.66;53.91;95022.53;10364313;28;20030;-22
2022/04/22 09:49:43;;;;;;;0.70;0.60;;;;;;;16.66;53.83;95022.53;10328229;28;20034;-22
2022/04/22 09:54:55;;;;;;;0.47;0.47;;;;;;;16.65;53.80;95019.19;10327394;28;20038;-21
2022/04/22 09:59:55;;;;;;;0.77;0.52;;;;;;;16.61;54.04;95012.50;10341784;28;20034;-22
2022/04/22 10:04:57;;;;;;;0.77;0.75;;;;;;;16.64;54.00;95017.53;10367703;28;20493;-22
2022/04/22 10:10:01;;;;;;;0.93;0.40;;;;;;;16.65;53.84;95019.19;10384005;28;20026;-21
2022/04/22 10:15:06;;;;;;;0.65;0.55;;;;;;;16.64;54.01;95009.94;10382830;28;20031;-22
2022/04/22 10:20:07;;;;;;;0.75;0.70;;;;;;;16.66;54.46;95004.84;10327450;28;20042;-23
2022/04/22 10:25:09;;;;;;;0.60;0.55;;;;;;;16.77;54.89;95008.00;10362749;28;20038;-22
2022/04/22 10:30:11;;;;;;;0.50;0.50;;;;;;;16.82;54.96;94994.41;10367110;28;20045;-21
2022/04/22 10:35:13;;;;;;;0.50;0.50;;;;;;;16.76;53.83;94999.56;10329286;28;20038;-21
2022/04/22 10:40:24;;;;;;;0.50;0.50;;;;;;;16.69;53.89;94998.03;10327103;28;20058;-23
2022/04/22 10:50:56;;;;;;;0.57;0.50;;;;;;;16.67;53.81;95002.28;10327128;28;20045;-22
2022/04/22 10:56:34;;;;;;;0.50;0.50;;;;;;;16.67;54.29;94999.78;10327368;28;20109;-22
2022/04/22 11:01:39;;;;;;;;;;;;;;;16.64;53.83;94989.75;10327405;28;20044;-22
2022/04/22 11:06:39;;;;;;;0.60;0.60;;;;;;;16.63;54.12;94993.09;10358104;28;19917;-21
2022/04/22 11:11:40;;;;;;;0.80;0.80;;;;;;;16.63;53.87;94982.19;10388118;28;20399;-22
2022/04/22 11:16:40;;;;;;;0.95;0.60;;;;;;;16.61;53.69;94987.25;10391932;28;20125;-22
2022/04/22 11:21:42;;;;;;;0.50;0.50;;;;;;;16.64;54.00;94988.88;10341646;28;20044;-22
2022/04/22 11:26:44;;;;;;;0.70;0.60;;;;;;;16.56;54.11;94970.53;10374320;28;20038;-23
2022/04/22 11:32:01;;;;;;;0.88;0.88;;;;;;;16.74;55.29;94983.63;10344894;28;20042;-22
2022/04/22 11:37:01;;;;;;;0.68;0.60;;;;;;;16.78;55.03;94982.69;10332925;28;20039;-21
2022/04/22 11:42:09;;;;;;;0.73;0.63;;;;;;;16.82;54.77;94984.31;10333114;28;20050;-22
2022/04/22 11:47:09;;;;;;;0.50;0.50;;;;;;;16.73;54.09;94982.78;10332141;28;20038;-21
2022/04/22 11:52:09;;;;;;;0.68;0.40;;;;;;;16.70;54.05;94974.44;10343555;28;20061;-21
2022/04/22 11:57:10;;;;;;;0.77;0.70;;;;;;;16.68;54.24;94986.28;10373187;28;20034;-22
2022/04/22 12:12:52;;;;;;;0.50;0.50;;;;;;;16.64;53.96;94972.06;10412712;28;20141;-22
2022/04/22 12:17:52;;;;;;;0.38;0.38;;;;;;;16.65;54.10;94976.25;10351487;28;20030;-21
2022/04/22 12:22:55;;;;;;;0.70;0.70;;;;;;;16.64;53.77;94976.25;10348252;28;20045;-21
2022/04/22 12:28:07;;;;;;;0.75;0.60;;;;;;;16.65;54.01;94981.28;10370355;28;20304;-21
2022/04/22 12:33:17;;;;;;;0.68;0.65;;;;;;;16.66;54.17;94979.56;10345817;28;20042;-22
2022/04/22 12:38:21;;;;;;;0.70;0.70;;;;;;;16.65;54.06;94981.28;10352461;28;20077;-22
2022/04/22 12:43:23;;;;;;;0.80;0.80;;;;;;;16.78;54.89;94975.09;10370835;28;20048;-21
2022/04/22 12:53:42;;;;;;;0.70;0.70;;;;;;;16.71;54.12;94963.47;10353990;28;20093;-22
2022/04/22 12:58:53;;;;;;;0.55;0.55;;;;;;;16.72;54.01;94972.72;10366380;28;20120;-21
2022/04/22 13:03:55;;;;;;;0.60;0.60;;;;;;;16.70;53.94;94974.44;10348538;28;20030;-22
2022/04/22 13:08:55;;;;;;;0.40;0.40;;;;;;;16.67;54.15;94974.50;10359222;28;20500;-22
2022/04/22 13:13:55;;;;;;;0.50;0.50;;;;;;;16.67;54.21;94978.72;10410749;28;20120;-22
2022/04/22 13:18:56;;;;;;;0.80;0.60;;;;;;;16.65;53.69;94976.25;10347108;28;20061;-22
2022/04/22 13:23:57;;;;;;;0.70;0.63;;;;;;;16.65;54.01;94977.91;10329495;28;20034;-22
2022/04/22 13:28:57;;;;;;;0.70;0.70;;;;;;;16.65;54.07;94971.19;10328765;28;20042;-22
2022/04/22 13:33:58;;;;;;;0.75;0.75;;;;;;;16.65;53.92;94963.59;10328881;28;20129;-22
2022/04/22 13:38:58;;;;;;;0.80;0.57;;;;;;;16.66;53.99;94972.00;10354357;28;20076;-22
2022/04/22 13:43:59;;;;;;;1.05;0.75;;;;;;;16.65;54.02;94962.75;10363565;28;20046;-22
2022/04/22 13:54:18;;;;;;;0.88;0.80;;;;;;;16.79;55.44;94961.59;10327653;28;20109;-22
2022/04/22 13:59:18;;;;;;;0.80;0.80;;;;;;;16.85;55.29;94962.31;10327472;28;20077;-21
2022/04/22 14:04:19;;;;;;;0.70;0.70;;;;;;;16.77;54.53;94953.22;10350400;28;20500;-21
2022/04/22 14:09:19;;;;;;;0.90;0.70;;;;;;;16.71;54.18;94953.34;10378919;28;20041;-22
2022/04/22 14:14:22;;;;;;;0.70;0.70;;;;;;;16.69;54.25;94950.03;10409003;28;20033;-22
2022/04/22 14:19:22;;;;;;;1.00;0.90;;;;;;;16.66;54.00;94950.09;10368558;28;20064;-22
2022/04/22 14:24:23;;;;;;;0.80;0.80;;;;;;;16.68;54.24;94958.47;10336907;28;20049;-22
2022/04/22 14:29:24;;;;;;;0.65;0.65;;;;;;;16.66;54.14;94962.75;10327469;28;20077;-21
2022/04/22 14:34:25;;;;;;;0.85;0.82;;;;;;;16.66;54.26;94956.84;10326805;28;20058;-22
2022/04/22 14:39:25;;;;;;;0.60;0.60;;;;;;;16.66;53.94;94957.69;10326910;28;20444;-22
2022/04/22 14:44:27;;;;;;;0.70;0.70;;;;;;;16.63;53.96;94957.72;10326594;28;20034;-22
2022/04/22 14:49:27;;;;;;;0.77;0.65;;;;;;;16.62;53.95;94950.19;10359084;28;20472;-22
2022/04/22 14:54:28;;;;;;;0.70;0.70;;;;;;;16.65;53.95;94955.19;10334676;28;20113;-23
2022/04/22 14:59:28;;;;;;;0.80;0.80;;;;;;;16.75;55.54;94947.38;10334862;28;20048;-22
2022/04/22 15:04:28;;;;;;;0.87;0.87;;;;;;;16.83;55.78;94958.16;10358636;28;20121;-22
2022/04/22 15:09:29;;;;;;;0.90;0.90;;;;;;;16.87;55.60;94954.69;10369581;28;20117;-21
2022/04/22 15:14:29;;;;;;;0.80;0.80;;;;;;;16.77;54.24;94958.28;10402138;28;20042;-23
2022/04/22 15:24:48;;;;;;;0.57;0.57;;;;;;;16.70;54.42;94955.94;10333300;28;20042;-22
2022/04/22 15:29:49;;;;;;;1.00;0.97;;;;;;;16.67;54.21;94960.16;10333532;28;20040;-21
2022/04/22 15:34:50;;;;;;;0.80;0.80;;;;;;;16.67;54.40;94954.28;10332629;28;20045;-21
2022/04/22 15:39:50;;;;;;;0.50;0.50;;;;;;;16.66;54.10;94955.16;10366539;28;20096;-22
2022/04/22 15:44:51;;;;;;;1.35;0.60;;;;;;;16.66;54.42;94956.84;10372585;28;20111;-22
2022/04/22 15:49:51;;;;;;;0.50;0.50;;;;;;;16.65;54.39;94955.19;10332850;28;20092;-22
2022/04/22 15:54:52;;;;;;;0.60;0.60;;;;;;;16.66;54.19;94957.69;10332449;28;20038;-22
2022/04/22 15:59:52;;;;;;;0.67;0.67;;;;;;;16.65;54.24;94955.19;10332230;28;20044;-22
2022/04/22 16:04:53;;;;;;;0.60;0.60;;;;;;;16.65;54.27;94963.59;10357461;28;20492;-22
2022/04/22 16:09:53;;;;;;;1.20;1.10;;;;;;;16.78;56.15;94965.00;10369713;28;20349;-21
2022/04/22 16:20:12;;;;;;;0.75;0.75;;;;;;;16.77;55.10;94961.66;10370853;28;20031;-21
2022/04/22 16:25:18;;;;;;;1.70;0.70;;;;;;;16.71;54.30;94965.97;10333928;28;20034;-22
2022/04/22 16:30:19;;;;;;;0.80;0.75;;;;;;;16.71;54.45;94965.97;10331272;28;20432;-22
2022/04/22 16:35:20;;;;;;;1.15;0.95;;;;;;;16.68;54.56;94966.06;10330565;28;20068;-21
2022/04/22 16:40:21;;;;;;;0.82;0.73;;;;;;;16.67;54.73;94974.50;10367877;28;20042;-22
2022/04/22 16:45:22;;;;;;;0.63;0.63;;;;;;;16.67;54.47;94979.56;10361280;28;20034;-21
2022/04/22 16:50:22;;;;;;;0.50;0.50;;;;;;;16.63;54.68;94977.94;10330483;28;20030;-21
2022/04/22 16:55:23;;;;;;;0.85;0.77;;;;;;;16.66;54.42;94982.94;10329979;28;20435;-22
2022/04/22 17:00:23;;;;;;;0.60;0.60;;;;;;;16.65;54.04;94991.41;10330386;28;20041;-21
2022/04/22 17:05:24;;;;;;;0.50;0.50;;;;;;;16.64;54.07;94994.78;10361409;28;20650;-21
2022/04/22 17:10:24;;;;;;;0.60;0.60;;;;;;;16.64;54.27;94993.94;10371708;28;20292;-22
2022/04/22 17:26:03;;;;;;;1.38;1.27;;;;;;;16.87;56.39;95006.06;10328498;28;20038;-21
2022/04/22 17:31:03;;;;;;;0.40;0.40;;;;;;;16.79;55.23;95009.59;10328622;28;20077;-21
2022/04/22 17:36:04;;;;;;;0.60;0.60;;;;;;;16.71;54.28;95014.00;10331169;28;20036;-22
2022/04/22 17:41:05;;;;;;;0.65;0.65;;;;;;;16.68;54.60;95001.44;10369298;28;20339;-21
2022/04/22 17:46:06;;;;;;;0.50;0.50;;;;;;;16.67;54.40;95012.41;10350007;28;20113;-22
2022/04/22 17:51:06;;;;;;;1.30;0.60;;;;;;;16.65;54.25;95019.19;10328617;28;20485;-21
2022/04/22 17:56:07;;;;;;;0.63;0.63;;;;;;;16.65;54.29;95018.34;10327853;28;20034;-21
2022/04/22 18:01:09;;;;;;;0.45;0.45;;;;;;;16.64;54.64;95025.09;10338776;28;20088;-21
2022/04/22 18:06:10;;;;;;;0.55;0.55;;;;;;;16.64;54.36;95031.84;10363392;28;20041;-22
2022/04/22 18:11:10;;;;;;;0.60;0.60;;;;;;;16.64;54.48;95024.25;10379876;28;20033;-21
2022/04/22 18:16:13;;;;;;;0.73;0.50;;;;;;;16.64;54.21;95035.22;10361037;28;20034;-23
2022/04/22 18:21:16;;;;;;;0.60;0.60;;;;;;;16.63;54.38;95036.03;10327108;28;20077;-21
2022/04/22 18:26:16;;;;;;;0.70;0.70;;;;;;;16.67;55.88;95038.47;10326734;28;20027;-23
2022/04/22 18:31:16;;;;;;;1.13;1.02;;;;;;;16.81;56.77;95038.22;10326954;28;20030;-22
2022/04/22 18:36:17;;;;;;;1.30;1.20;;;;;;;16.87;56.29;95045.66;10331705;28;20057;-22
2022/04/22 18:41:18;;;;;;;0.80;0.80;;;;;;;16.76;54.86;95047.59;10368017;28;20038;-22
2022/04/22 18:46:18;;;;;;;0.70;0.70;;;;;;;16.64;54.50;95029.31;10353325;28;20049;-22
2022/04/22 18:51:19;;;;;;;0.93;0.80;;;;;;;16.68;54.33;95051.97;10326997;28;20445;-21
2022/04/22 18:56:20;;;;;;;0.50;0.47;;;;;;;16.66;54.42;95053.69;10326696;28;20297;-22
2022/04/22 19:01:22;;;;;;;0.60;0.60;;;;;;;16.65;54.59;95062.13;10343362;28;20502;-22
2022/04/22 19:06:22;;;;;;;0.80;0.60;;;;;;;16.63;54.42;95057.97;10360579;28;20089;-21
2022/04/22 19:11:23;;;;;;;0.60;0.60;;;;;;;16.63;54.43;95068.88;10383436;28;20037;-21
2022/04/22 19:16:25;;;;;;;0.53;0.53;;;;;;;16.64;54.41;95064.69;10385188;28;20037;-22
2022/04/22 19:21:26;;;;;;;0.63;0.63;;;;;;;16.62;54.50;95072.28;10359639;28;20755;-22
2022/04/22 19:26:29;;;;;;;0.50;0.50;;;;;;;16.63;54.40;95083.22;10325681;28;20034;-21
2022/04/22 19:31:30;;;;;;;0.50;0.50;;;;;;;16.62;54.34;95087.44;10325886;28;20035;-22
2022/04/22 19:41:50;;;;;;;1.10;1.00;;;;;;;16.81;56.58;95088.78;10332962;28;20321;-21
2022/04/22 19:46:50;;;;;;;1.02;0.95;;;;;;;16.86;56.37;95092.03;10332930;28;20064;-22
2022/04/22 19:51:51;;;;;;;0.60;0.43;;;;;;;16.75;54.67;95088.88;10342048;28;20033;-21
2022/04/22 19:56:52;;;;;;;0.32;0.32;;;;;;;16.68;54.62;95092.38;10373064;28;20034;-22
2022/04/22 20:01:52;;;;;;;0.80;0.80;;;;;;;16.66;54.42;95098.31;10356537;28;20037;-23
2022/04/22 20:06:52;;;;;;;0.60;0.60;;;;;;;16.63;54.73;95094.16;10362745;28;20117;-22
2022/04/22 20:11:54;;;;;;;0.70;0.70;;;;;;;16.63;54.32;95099.19;10396939;28;20298;-23
2022/04/22 20:16:56;;;;;;;0.50;0.50;;;;;;;16.62;54.51;95100.06;10370916;28;20034;-21
2022/04/22 20:21:57;;;;;;;0.60;0.50;;;;;;;16.53;54.50;95092.66;10331567;28;20042;-22
2022/04/22 20:26:57;;;;;;;0.52;0.52;;;;;;;16.61;54.47;95100.13;10330269;28;20088;-22
2022/04/22 20:31:58;;;;;;;0.70;0.70;;;;;;;16.58;54.80;95095.94;10330616;28;20539;-21
2022/04/22 20:42:18;;;;;;;0.88;0.73;;;;;;;16.59;54.60;95097.59;10370977;28;20455;-22
2022/04/22 20:47:18;;;;;;;1.10;1.00;;;;;;;16.71;56.59;95104.94;10347030;28;20355;-21
2022/04/22 20:52:18;;;;;;;0.70;0.70;;;;;;;16.81;56.18;95109.00;10329739;28;20030;-22
2022/04/22 20:57:19;;;;;;;1.10;0.97;;;;;;;16.85;56.26;95106.38;10330952;28;20051;-21
2022/04/22 21:02:20;;;;;;;0.60;0.60;;;;;;;16.70;54.68;95108.34;10336369;28;20293;-21
2022/04/22 21:07:20;;;;;;;1.75;0.77;;;;;;;16.67;54.29;95116.00;10356156;28;20056;-22
2022/04/22 21:12:20;;;;;;;0.73;0.73;;;;;;;16.65;54.73;95107.59;10402137;28;20116;-21
2022/04/22 21:17:21;;;;;;;0.60;0.60;;;;;;;16.62;54.78;95100.06;10376055;28;20038;-21
2022/04/22 21:22:21;;;;;;;1.00;0.80;;;;;;;16.63;54.68;95099.19;10355674;28;20041;-22
2022/04/22 21:27:21;;;;;;;0.50;0.50;;;;;;;16.63;54.58;95103.44;10328863;28;20268;-21
2022/04/22 21:32:22;;;;;;;0.47;0.47;;;;;;;16.61;54.52;95090.81;10328502;28;20042;-22
2022/04/22 21:37:22;;;;;;;0.73;0.73;;;;;;;16.62;54.47;95089.16;10327470;28;20045;-21
2022/04/22 21:42:23;;;;;;;0.77;0.70;;;;;;;16.61;54.50;95090.81;10328654;28;20038;-21
2022/04/22 21:47:23;;;;;;;0.60;0.60;;;;;;;16.59;54.55;95082.44;10346764;28;20034;-22
2022/04/22 21:52:23;;;;;;;0.70;0.70;;;;;;;16.60;54.30;95089.16;10354965;28;20116;-23
2022/04/22 21:57:24;;;;;;;1.00;0.90;;;;;;;16.73;56.12;95100.72;10326738;28;20038;-21
2022/04/22 22:02:24;;;;;;;0.80;0.80;;;;;;;16.81;56.21;95103.94;10334952;28;20508;-21
2022/04/22 22:07:25;;;;;;;1.00;0.90;;;;;;;16.84;55.77;95099.63;10352987;28;20034;-21
2022/04/22 22:12:25;;;;;;;0.60;0.60;;;;;;;16.72;54.71;95101.59;10401054;28;20284;-22
2022/04/22 22:17:26;;;;;;;0.80;0.80;;;;;;;16.67;54.62;95090.72;10364604;28;20092;-22
2022/04/22 22:22:26;;;;;;;0.85;0.85;;;;;;;16.65;54.62;95097.50;10326466;28;20128;-22
2022/04/22 22:27:27;;;;;;;0.67;0.67;;;;;;;16.62;54.77;95097.53;10327360;28;20396;-22
2022/04/22 22:32:27;;;;;;;0.80;0.80;;;;;;;16.62;54.50;95086.63;10345176;28;20448;-22
2022/04/22 22:37:27;;;;;;;0.90;0.90;;;;;;;16.63;54.68;95093.34;10351420;28;20297;-22
2022/04/22 22:42:28;;;;;;;0.70;0.70;;;;;;;16.61;54.62;95098.41;10327190;28;20040;-22
2022/04/22 22:47:28;;;;;;;0.63;0.63;;;;;;;16.61;54.33;95095.88;10327205;28;20038;-22
2022/04/22 22:52:28;;;;;;;0.60;0.60;;;;;;;16.62;54.63;95094.19;10326434;28;20042;-21
2022/04/22 22:57:30;;;;;;;1.05;1.00;;;;;;;16.59;54.73;95092.56;10326198;28;20045;-21
2022/04/22 23:02:30;;;;;;;0.73;0.73;;;;;;;16.62;54.30;95092.50;10333773;28;20439;-22
2022/04/22 23:07:34;;;;;;;0.98;0.98;;;;;;;16.73;56.34;95081.31;10351512;28;20285;-23
2022/04/22 23:12:34;;;;;;;10.45;3.88;;;;;;;16.58;53.80;95073.22;10337530;28;20444;-22
2022/04/22 23:17:35;;;;;;;8.57;5.97;;;;;;;16.39;52.05;95068.53;10344720;28;20034;-21
2022/04/22 23:22:36;;;;;;;18.83;9.57;;;;;;;16.25;51.65;95071.25;10333572;28;20319;-24
2022/04/22 23:27:36;;;;;;;11.90;6.22;;;;;;;16.27;51.59;95072.06;10332955;28;20045;-23
2022/04/22 23:32:37;;;;;;;3.70;3.33;;;;;;;16.42;53.78;95069.31;10370188;28;20041;-23
2022/04/22 23:37:38;;;;;;;6.05;2.70;;;;;;;16.48;54.50;95074.25;10355764;28;20255;-24
2022/04/22 23:42:39;;;;;;;7.85;2.63;;;;;;;16.55;53.99;95067.38;10367204;28;20058;-23
2022/04/22 23:47:39;;;;;;;2.65;2.10;;;;;;;16.61;54.34;95057.16;10371866;28;20076;-23
2022/04/22 23:52:39;;;;;;;3.33;2.35;;;;;;;16.65;53.93;95061.28;10372034;28;20041;-23
2022/04/22 23:57:40;;;;;;;2.58;1.63;;;;;;;16.61;54.12;95035.25;10372850;28;20041;-23
